sensor_id;sensor_type;location;lat;lon;timestamp;temperature;humidity
43043;DHT22;28667;50.758;6.096;2022-10-22T00:01:53;13.40;99.90
43043;DHT22;28667;50.758;6.096;2022-10-22T00:04:19;13.40;99.90
43043;DHT22;28667;50.758;6.096;2022-10-22T00:06:46;13.40;99.90
43043;DHT22;28667;50.758;6.096;2022-10-22T00:09:13;13.40;99.90
43043;DHT22;28667;50.758;6.096;2022-10-22T00:11:41;13.40;99.90
43043;DHT22;28667;50.758;6.096;2022-10-22T00:14:07;13.40;99.90
43043;DHT22;28667;50.758;6.096;2022-10-22T00:16:34;13.40;99.90
43043;DHT22;28667;50.758;6.096;2022-10-22T00:19:00;13.40;99.90
43043;DHT22;28667;50.758;6.096;2022-10-22T00:21:27;13.40;99.90
43043;DHT22;28667;50.758;6.096;2022-10-22T00:23:54;13.40;99.90
43043;DHT22;28667;50.758;6.096;2022-10-22T00:26:21;13.40;99.90
43043;DHT22;28667;50.758;6.096;2022-10-22T00:28:47;13.50;99.90
43043;DHT22;28667;50.758;6.096;2022-10-22T00:31:13;13.40;99.90
43043;DHT22;28667;50.758;6.096;2022-10-22T00:33:41;13.40;99.90
43043;DHT22;28667;50.758;6.096;2022-10-22T00:36:08;13.40;99.90
43043;DHT22;28667;50.758;6.096;2022-10-22T00:38:34;13.40;99.90
43043;DHT22;28667;50.758;6.096;2022-10-22T00:41:00;13.40;99.90
43043;DHT22;28667;50.758;6.096;2022-10-22T00:43:27;13.40;99.90
43043;DHT22;28667;50.758;6.096;2022-10-22T00:45:53;13.40;99.90
43043;DHT22;28667;50.758;6.096;2022-10-22T00:48:26;13.40;99.90
43043;DHT22;28667;50.758;6.096;2022-10-22T00:50:59;13.30;99.90
43043;DHT22;28667;50.758;6.096;2022-10-22T00:53:39;13.30;99.90
43043;DHT22;28667;50.758;6.096;2022-10-22T00:56:06;13.30;99.90
43043;DHT22;28667;50.758;6.096;2022-10-22T00:58:37;13.30;99.90
43043;DHT22;28667;50.758;6.096;2022-10-22T01:01:05;13.20;99.90
43043;DHT22;28667;50.758;6.096;2022-10-22T01:03:34;13.20;99.90
43043;DHT22;28667;50.758;6.096;2022-10-22T01:06:03;13.20;99.90
43043;DHT22;28667;50.758;6.096;2022-10-22T01:11:28;13.20;99.90
43043;DHT22;28667;50.758;6.096;2022-10-22T01:22:38;13.10;99.90
43043;DHT22;28667;50.758;6.096;2022-10-22T01:25:19;13.10;99.90
43043;DHT22;28667;50.758;6.096;2022-10-22T01:28:15;13.00;99.90
43043;DHT22;28667;50.758;6.096;2022-10-22T01:30:50;13.00;99.90
43043;DHT22;28667;50.758;6.096;2022-10-22T01:33:20;13.00;99.90
43043;DHT22;28667;50.758;6.096;2022-10-22T01:35:47;13.00;99.90
43043;DHT22;28667;50.758;6.096;2022-10-22T01:38:19;12.90;99.90
43043;DHT22;28667;50.758;6.096;2022-10-22T01:40:47;12.90;99.90
43043;DHT22;28667;50.758;6.096;2022-10-22T01:43:13;12.90;99.90
43043;DHT22;28667;50.758;6.096;2022-10-22T01:45:47;12.90;99.90
43043;DHT22;28667;50.758;6.096;2022-10-22T02:04:48;12.90;99.90
43043;DHT22;28667;50.758;6.096;2022-10-22T02:06:58;12.90;99.90
43043;DHT22;28667;50.758;6.096;2022-10-22T02:09:28;12.80;99.90
43043;DHT22;28667;50.758;6.096;2022-10-22T02:11:59;12.80;99.90
43043;DHT22;28667;50.758;6.096;2022-10-22T02:14:28;12.80;99.90
43043;DHT22;28667;50.758;6.096;2022-10-22T02:16:56;12.80;99.90
43043;DHT22;28667;50.758;6.096;2022-10-22T02:20:13;12.80;99.90
43043;DHT22;28667;50.758;6.096;2022-10-22T02:22:19;12.80;99.90
43043;DHT22;28667;50.758;6.096;2022-10-22T02:24:46;12.80;99.90
43043;DHT22;28667;50.758;6.096;2022-10-22T02:29:59;12.80;99.90
43043;DHT22;28667;50.758;6.096;2022-10-22T02:32:39;12.90;99.90
43043;DHT22;28667;50.758;6.096;2022-10-22T02:35:09;12.90;99.90
43043;DHT22;28667;50.758;6.096;2022-10-22T02:37:36;12.90;99.90
43043;DHT22;28667;50.758;6.096;2022-10-22T02:40:03;12.90;99.90
43043;DHT22;28667;50.758;6.096;2022-10-22T02:42:30;12.90;99.90
43043;DHT22;28667;50.758;6.096;2022-10-22T02:44:56;13.00;99.90
43043;DHT22;28667;50.758;6.096;2022-10-22T02:47:21;13.00;99.90
43043;DHT22;28667;50.758;6.096;2022-10-22T02:49:48;13.00;99.90
43043;DHT22;28667;50.758;6.096;2022-10-22T02:52:14;13.00;99.90
43043;DHT22;28667;50.758;6.096;2022-10-22T02:54:39;13.00;99.90
43043;DHT22;28667;50.758;6.096;2022-10-22T02:57:06;13.00;99.90
43043;DHT22;28667;50.758;6.096;2022-10-22T02:59:32;13.00;99.90
43043;DHT22;28667;50.758;6.096;2022-10-22T03:01:58;13.00;99.90
43043;DHT22;28667;50.758;6.096;2022-10-22T03:04:24;13.00;99.90
43043;DHT22;28667;50.758;6.096;2022-10-22T03:06:50;13.00;99.90
43043;DHT22;28667;50.758;6.096;2022-10-22T03:09:17;13.00;99.90
43043;DHT22;28667;50.758;6.096;2022-10-22T03:11:43;13.00;99.90
43043;DHT22;28667;50.758;6.096;2022-10-22T03:14:09;13.00;99.90
43043;DHT22;28667;50.758;6.096;2022-10-22T03:16:35;13.00;99.90
43043;DHT22;28667;50.758;6.096;2022-10-22T03:19:01;13.00;99.90
43043;DHT22;28667;50.758;6.096;2022-10-22T03:23:54;13.00;99.90
43043;DHT22;28667;50.758;6.096;2022-10-22T03:26:20;13.00;99.90
43043;DHT22;28667;50.758;6.096;2022-10-22T03:28:46;13.00;99.90
43043;DHT22;28667;50.758;6.096;2022-10-22T03:31:13;13.00;99.90
43043;DHT22;28667;50.758;6.096;2022-10-22T03:33:39;13.00;99.90
43043;DHT22;28667;50.758;6.096;2022-10-22T03:36:06;13.00;99.90
43043;DHT22;28667;50.758;6.096;2022-10-22T03:38:35;13.00;99.90
43043;DHT22;28667;50.758;6.096;2022-10-22T03:41:02;13.00;99.90
43043;DHT22;28667;50.758;6.096;2022-10-22T03:43:28;13.00;99.90
43043;DHT22;28667;50.758;6.096;2022-10-22T03:45:54;12.90;99.90
43043;DHT22;28667;50.758;6.096;2022-10-22T03:48:20;12.90;99.90
43043;DHT22;28667;50.758;6.096;2022-10-22T03:50:46;12.90;99.90
43043;DHT22;28667;50.758;6.096;2022-10-22T03:53:12;12.90;99.90
43043;DHT22;28667;50.758;6.096;2022-10-22T03:55:40;13.00;99.90
43043;DHT22;28667;50.758;6.096;2022-10-22T03:58:06;13.00;99.90
43043;DHT22;28667;50.758;6.096;2022-10-22T04:00:34;13.00;99.90
43043;DHT22;28667;50.758;6.096;2022-10-22T04:03:00;13.00;99.90
43043;DHT22;28667;50.758;6.096;2022-10-22T04:05:26;13.00;99.90
43043;DHT22;28667;50.758;6.096;2022-10-22T04:07:52;13.00;99.90
43043;DHT22;28667;50.758;6.096;2022-10-22T04:10:19;13.10;99.90
43043;DHT22;28667;50.758;6.096;2022-10-22T04:12:48;13.10;99.90
43043;DHT22;28667;50.758;6.096;2022-10-22T04:15:14;13.10;99.90
43043;DHT22;28667;50.758;6.096;2022-10-22T04:17:41;13.10;99.90
43043;DHT22;28667;50.758;6.096;2022-10-22T04:20:07;13.10;99.90
43043;DHT22;28667;50.758;6.096;2022-10-22T04:22:33;13.10;99.90
43043;DHT22;28667;50.758;6.096;2022-10-22T04:25:00;13.10;99.90
43043;DHT22;28667;50.758;6.096;2022-10-22T04:27:29;13.10;99.90
43043;DHT22;28667;50.758;6.096;2022-10-22T04:29:55;13.10;99.90
43043;DHT22;28667;50.758;6.096;2022-10-22T04:32:22;13.10;99.90
43043;DHT22;28667;50.758;6.096;2022-10-22T04:34:48;13.10;99.90
43043;DHT22;28667;50.758;6.096;2022-10-22T04:37:13;13.10;99.90
43043;DHT22;28667;50.758;6.096;2022-10-22T04:39:40;13.10;99.90
43043;DHT22;28667;50.758;6.096;2022-10-22T04:42:05;13.00;99.90
43043;DHT22;28667;50.758;6.096;2022-10-22T04:44:31;13.00;99.90
43043;DHT22;28667;50.758;6.096;2022-10-22T04:46:58;13.00;99.90
43043;DHT22;28667;50.758;6.096;2022-10-22T04:49:24;12.90;99.90
43043;DHT22;28667;50.758;6.096;2022-10-22T04:51:50;12.90;99.90
43043;DHT22;28667;50.758;6.096;2022-10-22T04:54:16;13.00;99.90
43043;DHT22;28667;50.758;6.096;2022-10-22T04:56:42;12.90;99.90
43043;DHT22;28667;50.758;6.096;2022-10-22T04:59:09;12.90;99.90
43043;DHT22;28667;50.758;6.096;2022-10-22T05:01:40;12.90;99.90
43043;DHT22;28667;50.758;6.096;2022-10-22T05:04:07;12.90;99.90
43043;DHT22;28667;50.758;6.096;2022-10-22T05:06:36;12.90;99.90
43043;DHT22;28667;50.758;6.096;2022-10-22T05:09:05;12.80;99.90
43043;DHT22;28667;50.758;6.096;2022-10-22T05:11:34;12.80;99.90
43043;DHT22;28667;50.758;6.096;2022-10-22T05:14:03;12.80;99.90
43043;DHT22;28667;50.758;6.096;2022-10-22T05:16:29;12.80;99.90
43043;DHT22;28667;50.758;6.096;2022-10-22T05:18:58;12.80;99.90
43043;DHT22;28667;50.758;6.096;2022-10-22T05:21:25;12.80;99.90
43043;DHT22;28667;50.758;6.096;2022-10-22T05:23:52;12.80;99.90
43043;DHT22;28667;50.758;6.096;2022-10-22T05:26:20;12.80;99.90
43043;DHT22;28667;50.758;6.096;2022-10-22T05:28:48;12.80;99.90
43043;DHT22;28667;50.758;6.096;2022-10-22T05:31:15;12.80;99.90
43043;DHT22;28667;50.758;6.096;2022-10-22T05:33:42;12.70;99.90
43043;DHT22;28667;50.758;6.096;2022-10-22T05:36:12;12.80;99.90
43043;DHT22;28667;50.758;6.096;2022-10-22T05:38:38;12.80;99.90
43043;DHT22;28667;50.758;6.096;2022-10-22T05:43:32;12.70;99.90
43043;DHT22;28667;50.758;6.096;2022-10-22T05:46:13;12.70;99.90
43043;DHT22;28667;50.758;6.096;2022-10-22T05:48:39;12.80;99.90
43043;DHT22;28667;50.758;6.096;2022-10-22T05:51:11;12.70;99.90
43043;DHT22;28667;50.758;6.096;2022-10-22T05:53:39;12.70;99.90
43043;DHT22;28667;50.758;6.096;2022-10-22T05:56:09;12.70;99.90
43043;DHT22;28667;50.758;6.096;2022-10-22T05:58:36;12.70;99.90
43043;DHT22;28667;50.758;6.096;2022-10-22T06:01:05;12.70;99.90
43043;DHT22;28667;50.758;6.096;2022-10-22T06:03:32;12.70;99.90
43043;DHT22;28667;50.758;6.096;2022-10-22T06:06:04;12.70;99.90
43043;DHT22;28667;50.758;6.096;2022-10-22T06:08:31;12.70;99.90
43043;DHT22;28667;50.758;6.096;2022-10-22T06:10:57;12.70;99.90
43043;DHT22;28667;50.758;6.096;2022-10-22T06:13:24;12.70;99.90
43043;DHT22;28667;50.758;6.096;2022-10-22T06:15:50;12.70;99.90
43043;DHT22;28667;50.758;6.096;2022-10-22T06:18:18;12.60;99.90
43043;DHT22;28667;50.758;6.096;2022-10-22T06:20:44;12.70;99.90
43043;DHT22;28667;50.758;6.096;2022-10-22T06:23:12;12.70;99.90
43043;DHT22;28667;50.758;6.096;2022-10-22T06:25:39;12.70;99.90
43043;DHT22;28667;50.758;6.096;2022-10-22T06:28:05;12.70;99.90
43043;DHT22;28667;50.758;6.096;2022-10-22T06:30:31;12.70;99.90
43043;DHT22;28667;50.758;6.096;2022-10-22T06:32:57;12.70;99.90
43043;DHT22;28667;50.758;6.096;2022-10-22T06:35:24;12.70;99.90
43043;DHT22;28667;50.758;6.096;2022-10-22T06:37:50;12.80;99.90
43043;DHT22;28667;50.758;6.096;2022-10-22T06:40:16;12.70;99.90
43043;DHT22;28667;50.758;6.096;2022-10-22T06:42:43;12.80;99.90
43043;DHT22;28667;50.758;6.096;2022-10-22T06:45:10;12.80;99.90
43043;DHT22;28667;50.758;6.096;2022-10-22T06:47:36;12.80;99.90
43043;DHT22;28667;50.758;6.096;2022-10-22T06:50:02;12.90;99.90
43043;DHT22;28667;50.758;6.096;2022-10-22T06:52:28;12.90;99.90
43043;DHT22;28667;50.758;6.096;2022-10-22T06:54:54;12.90;99.90
43043;DHT22;28667;50.758;6.096;2022-10-22T06:57:21;13.00;99.90
43043;DHT22;28667;50.758;6.096;2022-10-22T06:59:47;13.00;99.90
43043;DHT22;28667;50.758;6.096;2022-10-22T07:02:13;13.00;99.90
43043;DHT22;28667;50.758;6.096;2022-10-22T07:04:39;13.00;99.90
43043;DHT22;28667;50.758;6.096;2022-10-22T07:07:06;13.00;99.90
43043;DHT22;28667;50.758;6.096;2022-10-22T07:09:33;13.10;99.90
43043;DHT22;28667;50.758;6.096;2022-10-22T07:11:59;13.10;99.90
43043;DHT22;28667;50.758;6.096;2022-10-22T07:14:25;13.20;99.90
43043;DHT22;28667;50.758;6.096;2022-10-22T07:16:52;13.20;99.90
43043;DHT22;28667;50.758;6.096;2022-10-22T07:19:18;13.20;99.90
43043;DHT22;28667;50.758;6.096;2022-10-22T07:21:44;13.30;99.90
43043;DHT22;28667;50.758;6.096;2022-10-22T07:24:10;13.30;99.90
43043;DHT22;28667;50.758;6.096;2022-10-22T07:26:36;13.40;99.90
43043;DHT22;28667;50.758;6.096;2022-10-22T07:29:03;13.60;99.90
43043;DHT22;28667;50.758;6.096;2022-10-22T07:31:30;13.70;99.90
43043;DHT22;28667;50.758;6.096;2022-10-22T07:33:57;13.80;99.90
43043;DHT22;28667;50.758;6.096;2022-10-22T07:36:23;14.00;99.90
43043;DHT22;28667;50.758;6.096;2022-10-22T07:38:55;14.10;99.90
43043;DHT22;28667;50.758;6.096;2022-10-22T07:41:24;14.10;99.90
43043;DHT22;28667;50.758;6.096;2022-10-22T07:43:51;14.20;99.90
43043;DHT22;28667;50.758;6.096;2022-10-22T07:46:17;14.30;99.90
43043;DHT22;28667;50.758;6.096;2022-10-22T07:48:44;14.30;99.90
43043;DHT22;28667;50.758;6.096;2022-10-22T07:51:10;14.30;99.90
43043;DHT22;28667;50.758;6.096;2022-10-22T07:53:36;14.40;99.90
43043;DHT22;28667;50.758;6.096;2022-10-22T07:56:03;14.40;99.90
43043;DHT22;28667;50.758;6.096;2022-10-22T07:58:30;14.40;99.90
43043;DHT22;28667;50.758;6.096;2022-10-22T08:00:58;14.50;99.90
43043;DHT22;28667;50.758;6.096;2022-10-22T08:03:28;14.50;99.90
43043;DHT22;28667;50.758;6.096;2022-10-22T08:05:54;14.60;99.90
43043;DHT22;28667;50.758;6.096;2022-10-22T08:08:21;14.60;99.90
43043;DHT22;28667;50.758;6.096;2022-10-22T08:10:50;14.70;99.90
43043;DHT22;28667;50.758;6.096;2022-10-22T08:13:18;14.70;99.90
43043;DHT22;28667;50.758;6.096;2022-10-22T08:15:44;14.70;99.90
43043;DHT22;28667;50.758;6.096;2022-10-22T08:18:12;14.80;99.90
43043;DHT22;28667;50.758;6.096;2022-10-22T08:20:39;14.80;99.90
43043;DHT22;28667;50.758;6.096;2022-10-22T08:23:06;14.90;99.90
43043;DHT22;28667;50.758;6.096;2022-10-22T08:25:32;14.90;99.90
43043;DHT22;28667;50.758;6.096;2022-10-22T08:27:59;14.90;99.90
43043;DHT22;28667;50.758;6.096;2022-10-22T08:30:25;15.00;99.90
43043;DHT22;28667;50.758;6.096;2022-10-22T08:32:54;15.00;99.90
43043;DHT22;28667;50.758;6.096;2022-10-22T08:35:21;15.00;99.90
43043;DHT22;28667;50.758;6.096;2022-10-22T08:37:47;15.10;99.90
43043;DHT22;28667;50.758;6.096;2022-10-22T08:40:43;15.10;99.90
43043;DHT22;28667;50.758;6.096;2022-10-22T08:48:54;15.30;99.90
43043;DHT22;28667;50.758;6.096;2022-10-22T08:51:25;15.30;99.90
43043;DHT22;28667;50.758;6.096;2022-10-22T08:56:41;15.40;99.90
43043;DHT22;28667;50.758;6.096;2022-10-22T09:08:14;15.40;99.90
43043;DHT22;28667;50.758;6.096;2022-10-22T09:10:50;15.40;99.90
43043;DHT22;28667;50.758;6.096;2022-10-22T09:13:19;15.50;99.90
43043;DHT22;28667;50.758;6.096;2022-10-22T09:15:54;15.50;99.90
43043;DHT22;28667;50.758;6.096;2022-10-22T09:29:37;15.60;99.90
43043;DHT22;28667;50.758;6.096;2022-10-22T09:32:04;15.60;99.90
43043;DHT22;28667;50.758;6.096;2022-10-22T09:34:31;15.70;99.90
43043;DHT22;28667;50.758;6.096;2022-10-22T09:37:04;15.70;99.90
43043;DHT22;28667;50.758;6.096;2022-10-22T09:39:33;15.70;99.90
43043;DHT22;28667;50.758;6.096;2022-10-22T09:41:59;15.80;99.90
43043;DHT22;28667;50.758;6.096;2022-10-22T09:44:26;15.80;99.90
43043;DHT22;28667;50.758;6.096;2022-10-22T09:46:52;15.90;99.90
43043;DHT22;28667;50.758;6.096;2022-10-22T09:49:20;15.90;99.90
43043;DHT22;28667;50.758;6.096;2022-10-22T09:51:49;15.90;99.90
43043;DHT22;28667;50.758;6.096;2022-10-22T09:54:23;15.90;99.90
43043;DHT22;28667;50.758;6.096;2022-10-22T09:57:19;15.80;99.90
43043;DHT22;28667;50.758;6.096;2022-10-22T09:59:48;15.90;99.90
43043;DHT22;28667;50.758;6.096;2022-10-22T10:02:19;15.90;99.90
43043;DHT22;28667;50.758;6.096;2022-10-22T10:04:52;15.90;99.90
43043;DHT22;28667;50.758;6.096;2022-10-22T10:07:27;16.00;99.90
43043;DHT22;28667;50.758;6.096;2022-10-22T10:09:56;16.00;99.90
43043;DHT22;28667;50.758;6.096;2022-10-22T10:12:50;16.00;99.90
43043;DHT22;28667;50.758;6.096;2022-10-22T10:20:45;15.90;99.90
43043;DHT22;28667;50.758;6.096;2022-10-22T10:23:16;15.90;99.90
43043;DHT22;28667;50.758;6.096;2022-10-22T10:26:18;15.80;99.90
43043;DHT22;28667;50.758;6.096;2022-10-22T10:34:28;15.70;99.90
43043;DHT22;28667;50.758;6.096;2022-10-22T10:42:35;15.70;99.90
43043;DHT22;28667;50.758;6.096;2022-10-22T10:51:15;15.60;99.90
43043;DHT22;28667;50.758;6.096;2022-10-22T11:04:33;15.90;99.90
43043;DHT22;28667;50.758;6.096;2022-10-22T11:07:10;15.90;99.90
43043;DHT22;28667;50.758;6.096;2022-10-22T11:09:42;16.00;99.90
43043;DHT22;28667;50.758;6.096;2022-10-22T11:12:18;16.10;99.90
43043;DHT22;28667;50.758;6.096;2022-10-22T11:17:45;16.30;99.90
43043;DHT22;28667;50.758;6.096;2022-10-22T11:20:23;16.40;99.90
43043;DHT22;28667;50.758;6.096;2022-10-22T11:23:05;16.50;99.90
43043;DHT22;28667;50.758;6.096;2022-10-22T11:25:39;16.60;99.90
43043;DHT22;28667;50.758;6.096;2022-10-22T11:28:18;16.60;99.90
43043;DHT22;28667;50.758;6.096;2022-10-22T11:30:51;16.60;99.90
43043;DHT22;28667;50.758;6.096;2022-10-22T11:33:21;16.60;99.90
43043;DHT22;28667;50.758;6.096;2022-10-22T11:35:49;16.70;99.90
43043;DHT22;28667;50.758;6.096;2022-10-22T11:38:21;16.70;99.90
43043;DHT22;28667;50.758;6.096;2022-10-22T11:41:17;16.70;99.90
43043;DHT22;28667;50.758;6.096;2022-10-22T11:43:57;16.80;99.90
43043;DHT22;28667;50.758;6.096;2022-10-22T11:46:30;16.80;99.90
43043;DHT22;28667;50.758;6.096;2022-10-22T11:51:31;16.90;99.90
43043;DHT22;28667;50.758;6.096;2022-10-22T11:54:01;16.90;99.90
43043;DHT22;28667;50.758;6.096;2022-10-22T11:56:36;16.80;99.90
43043;DHT22;28667;50.758;6.096;2022-10-22T11:59:36;16.90;99.90
43043;DHT22;28667;50.758;6.096;2022-10-22T12:01:54;16.90;99.90
43043;DHT22;28667;50.758;6.096;2022-10-22T12:04:21;16.90;99.90
43043;DHT22;28667;50.758;6.096;2022-10-22T12:06:59;17.00;99.90
43043;DHT22;28667;50.758;6.096;2022-10-22T12:09:28;17.00;99.90
43043;DHT22;28667;50.758;6.096;2022-10-22T12:12:12;17.10;99.90
43043;DHT22;28667;50.758;6.096;2022-10-22T12:14:52;17.10;99.90
43043;DHT22;28667;50.758;6.096;2022-10-22T12:17:20;17.10;99.90
43043;DHT22;28667;50.758;6.096;2022-10-22T12:20:10;17.00;99.90
43043;DHT22;28667;50.758;6.096;2022-10-22T12:22:37;17.00;99.90
43043;DHT22;28667;50.758;6.096;2022-10-22T12:25:23;16.90;99.90
43043;DHT22;28667;50.758;6.096;2022-10-22T12:27:52;16.70;99.90
43043;DHT22;28667;50.758;6.096;2022-10-22T12:32:52;16.60;99.90
43043;DHT22;28667;50.758;6.096;2022-10-22T12:35:23;16.60;99.90
43043;DHT22;28667;50.758;6.096;2022-10-22T12:37:55;16.60;99.90
43043;DHT22;28667;50.758;6.096;2022-10-22T12:40:27;16.50;99.90
43043;DHT22;28667;50.758;6.096;2022-10-22T12:43:06;16.50;99.90
43043;DHT22;28667;50.758;6.096;2022-10-22T12:45:33;16.60;99.90
43043;DHT22;28667;50.758;6.096;2022-10-22T12:48:05;16.70;99.90
43043;DHT22;28667;50.758;6.096;2022-10-22T12:50:36;16.80;99.90
43043;DHT22;28667;50.758;6.096;2022-10-22T12:53:17;16.90;99.90
43043;DHT22;28667;50.758;6.096;2022-10-22T12:55:46;17.00;99.90
43043;DHT22;28667;50.758;6.096;2022-10-22T12:58:24;17.00;99.90
43043;DHT22;28667;50.758;6.096;2022-10-22T13:00:55;17.10;99.90
43043;DHT22;28667;50.758;6.096;2022-10-22T13:03:29;17.30;99.90
43043;DHT22;28667;50.758;6.096;2022-10-22T13:05:56;17.30;99.90
43043;DHT22;28667;50.758;6.096;2022-10-22T13:08:26;17.30;99.90
43043;DHT22;28667;50.758;6.096;2022-10-22T13:10:53;17.30;99.90
43043;DHT22;28667;50.758;6.096;2022-10-22T13:13:31;17.20;99.90
43043;DHT22;28667;50.758;6.096;2022-10-22T13:16:22;17.20;99.90
43043;DHT22;28667;50.758;6.096;2022-10-22T13:18:53;17.10;99.90
43043;DHT22;28667;50.758;6.096;2022-10-22T13:21:35;17.00;99.90
43043;DHT22;28667;50.758;6.096;2022-10-22T13:24:19;17.00;99.90
43043;DHT22;28667;50.758;6.096;2022-10-22T13:26:49;16.90;99.90
43043;DHT22;28667;50.758;6.096;2022-10-22T13:29:17;16.90;99.90
43043;DHT22;28667;50.758;6.096;2022-10-22T13:31:46;16.80;99.90
43043;DHT22;28667;50.758;6.096;2022-10-22T13:34:16;16.90;99.90
43043;DHT22;28667;50.758;6.096;2022-10-22T13:36:43;16.80;99.90
43043;DHT22;28667;50.758;6.096;2022-10-22T13:39:20;16.80;99.90
43043;DHT22;28667;50.758;6.096;2022-10-22T13:41:47;16.80;99.90
43043;DHT22;28667;50.758;6.096;2022-10-22T13:44:18;16.80;99.90
43043;DHT22;28667;50.758;6.096;2022-10-22T13:46:45;16.70;99.90
43043;DHT22;28667;50.758;6.096;2022-10-22T13:49:20;16.70;99.90
43043;DHT22;28667;50.758;6.096;2022-10-22T13:51:48;16.60;99.90
43043;DHT22;28667;50.758;6.096;2022-10-22T13:54:21;16.60;99.90
43043;DHT22;28667;50.758;6.096;2022-10-22T13:56:48;16.60;99.90
43043;DHT22;28667;50.758;6.096;2022-10-22T13:59:14;16.60;99.90
43043;DHT22;28667;50.758;6.096;2022-10-22T14:01:40;16.60;99.90
43043;DHT22;28667;50.758;6.096;2022-10-22T14:04:09;16.60;99.90
43043;DHT22;28667;50.758;6.096;2022-10-22T14:06:37;16.60;99.90
43043;DHT22;28667;50.758;6.096;2022-10-22T14:09:11;16.70;99.90
43043;DHT22;28667;50.758;6.096;2022-10-22T14:11:38;16.70;99.90
43043;DHT22;28667;50.758;6.096;2022-10-22T14:14:04;16.80;99.90
43043;DHT22;28667;50.758;6.096;2022-10-22T14:16:33;16.80;99.90
43043;DHT22;28667;50.758;6.096;2022-10-22T14:19:01;16.90;99.90
43043;DHT22;28667;50.758;6.096;2022-10-22T14:21:35;16.90;99.90
43043;DHT22;28667;50.758;6.096;2022-10-22T14:24:02;17.00;99.90
43043;DHT22;28667;50.758;6.096;2022-10-22T14:26:32;17.00;99.90
43043;DHT22;28667;50.758;6.096;2022-10-22T14:29:00;17.10;99.90
43043;DHT22;28667;50.758;6.096;2022-10-22T14:31:27;17.20;99.90
43043;DHT22;28667;50.758;6.096;2022-10-22T14:33:53;17.30;99.90
43043;DHT22;28667;50.758;6.096;2022-10-22T14:36:19;17.30;99.90
43043;DHT22;28667;50.758;6.096;2022-10-22T14:38:46;17.40;99.90
43043;DHT22;28667;50.758;6.096;2022-10-22T14:41:22;17.40;99.90
43043;DHT22;28667;50.758;6.096;2022-10-22T14:43:50;17.50;99.90
43043;DHT22;28667;50.758;6.096;2022-10-22T14:46:18;17.50;99.90
43043;DHT22;28667;50.758;6.096;2022-10-22T14:48:44;17.50;99.90
43043;DHT22;28667;50.758;6.096;2022-10-22T14:51:16;17.50;99.90
43043;DHT22;28667;50.758;6.096;2022-10-22T14:53:43;17.50;99.90
43043;DHT22;28667;50.758;6.096;2022-10-22T14:56:15;17.50;99.90
43043;DHT22;28667;50.758;6.096;2022-10-22T14:58:42;17.40;99.90
43043;DHT22;28667;50.758;6.096;2022-10-22T15:01:08;17.40;99.90
43043;DHT22;28667;50.758;6.096;2022-10-22T15:03:34;17.40;99.90
43043;DHT22;28667;50.758;6.096;2022-10-22T15:06:01;17.30;99.90
43043;DHT22;28667;50.758;6.096;2022-10-22T15:08:29;17.30;99.90
43043;DHT22;28667;50.758;6.096;2022-10-22T15:11:03;17.30;99.90
43043;DHT22;28667;50.758;6.096;2022-10-22T15:13:30;17.30;99.90
43043;DHT22;28667;50.758;6.096;2022-10-22T15:15:57;17.20;99.90
43043;DHT22;28667;50.758;6.096;2022-10-22T15:18:24;17.20;99.90
43043;DHT22;28667;50.758;6.096;2022-10-22T15:20:58;17.10;99.90
43043;DHT22;28667;50.758;6.096;2022-10-22T15:23:25;17.10;99.90
43043;DHT22;28667;50.758;6.096;2022-10-22T15:25:51;17.00;99.90
43043;DHT22;28667;50.758;6.096;2022-10-22T15:28:17;16.90;99.90
43043;DHT22;28667;50.758;6.096;2022-10-22T15:30:43;16.90;99.90
43043;DHT22;28667;50.758;6.096;2022-10-22T15:33:09;16.90;99.90
43043;DHT22;28667;50.758;6.096;2022-10-22T15:35:36;16.90;99.90
43043;DHT22;28667;50.758;6.096;2022-10-22T15:38:02;16.80;99.90
43043;DHT22;28667;50.758;6.096;2022-10-22T15:40:31;16.80;99.90
43043;DHT22;28667;50.758;6.096;2022-10-22T15:42:57;16.70;99.90
43043;DHT22;28667;50.758;6.096;2022-10-22T15:45:23;16.60;99.90
43043;DHT22;28667;50.758;6.096;2022-10-22T15:47:50;16.60;99.90
43043;DHT22;28667;50.758;6.096;2022-10-22T15:50:16;16.50;99.90
43043;DHT22;28667;50.758;6.096;2022-10-22T15:52:42;16.50;99.90
43043;DHT22;28667;50.758;6.096;2022-10-22T15:55:08;16.40;99.90
43043;DHT22;28667;50.758;6.096;2022-10-22T15:57:36;16.30;99.90
43043;DHT22;28667;50.758;6.096;2022-10-22T16:00:04;16.20;99.90
43043;DHT22;28667;50.758;6.096;2022-10-22T16:02:38;16.10;99.90
43043;DHT22;28667;50.758;6.096;2022-10-22T16:05:05;16.10;99.90
43043;DHT22;28667;50.758;6.096;2022-10-22T16:07:31;16.00;99.90
43043;DHT22;28667;50.758;6.096;2022-10-22T16:09:58;15.90;99.90
43043;DHT22;28667;50.758;6.096;2022-10-22T16:12:26;15.80;99.90
43043;DHT22;28667;50.758;6.096;2022-10-22T16:14:52;15.70;99.90
43043;DHT22;28667;50.758;6.096;2022-10-22T16:17:18;15.60;99.90
43043;DHT22;28667;50.758;6.096;2022-10-22T16:19:46;15.60;99.90
43043;DHT22;28667;50.758;6.096;2022-10-22T16:22:12;15.50;99.90
43043;DHT22;28667;50.758;6.096;2022-10-22T16:24:38;15.30;99.90
43043;DHT22;28667;50.758;6.096;2022-10-22T16:27:08;15.20;99.90
43043;DHT22;28667;50.758;6.096;2022-10-22T16:29:36;15.20;99.90
43043;DHT22;28667;50.758;6.096;2022-10-22T16:32:03;15.00;99.90
43043;DHT22;28667;50.758;6.096;2022-10-22T16:34:30;15.00;99.90
43043;DHT22;28667;50.758;6.096;2022-10-22T16:36:56;14.90;99.90
43043;DHT22;28667;50.758;6.096;2022-10-22T16:39:22;14.80;99.90
43043;DHT22;28667;50.758;6.096;2022-10-22T16:41:48;14.70;99.90
43043;DHT22;28667;50.758;6.096;2022-10-22T16:44:14;14.60;99.90
43043;DHT22;28667;50.758;6.096;2022-10-22T16:46:40;14.50;99.90
43043;DHT22;28667;50.758;6.096;2022-10-22T16:49:07;14.40;99.90
43043;DHT22;28667;50.758;6.096;2022-10-22T16:51:33;14.40;99.90
43043;DHT22;28667;50.758;6.096;2022-10-22T16:54:00;14.30;99.90
43043;DHT22;28667;50.758;6.096;2022-10-22T16:56:26;14.30;99.90
43043;DHT22;28667;50.758;6.096;2022-10-22T16:58:54;14.10;99.90
43043;DHT22;28667;50.758;6.096;2022-10-22T17:01:23;14.10;99.90
43043;DHT22;28667;50.758;6.096;2022-10-22T17:03:55;14.00;99.90
43043;DHT22;28667;50.758;6.096;2022-10-22T17:06:23;13.90;99.90
43043;DHT22;28667;50.758;6.096;2022-10-22T17:08:51;13.80;99.90
43043;DHT22;28667;50.758;6.096;2022-10-22T17:11:20;13.80;99.90
43043;DHT22;28667;50.758;6.096;2022-10-22T17:13:49;13.70;99.90
43043;DHT22;28667;50.758;6.096;2022-10-22T17:16:19;13.70;99.90
43043;DHT22;28667;50.758;6.096;2022-10-22T17:18:46;13.60;99.90
43043;DHT22;28667;50.758;6.096;2022-10-22T17:21:13;13.60;99.90
43043;DHT22;28667;50.758;6.096;2022-10-22T17:23:40;13.50;99.90
43043;DHT22;28667;50.758;6.096;2022-10-22T17:26:12;13.50;99.90
43043;DHT22;28667;50.758;6.096;2022-10-22T17:28:39;13.50;99.90